createdAt,value
2017-10-01T00:02:16.507Z,4.60
2017-10-01T00:07:33.653Z,5.23
2017-10-01T00:12:51.912Z,5.30
2017-10-01T00:18:11.519Z,4.97
2017-10-01T00:23:31.018Z,4.40
2017-10-01T00:28:36.125Z,5.20
2017-10-01T00:33:37.977Z,5.20
2017-10-01T00:38:39.712Z,5.20
2017-10-01T00:43:41.451Z,5.30
2017-10-01T00:48:44.022Z,4.53
2017-10-01T00:53:45.880Z,4.40
2017-10-01T00:58:47.774Z,4.43
2017-10-01T01:03:49.628Z,4.23
2017-10-01T01:08:52.501Z,4.47
2017-10-01T01:13:55.359Z,4.50
2017-10-01T01:18:57.309Z,4.40
2017-10-01T01:23:59.209Z,4.70
2017-10-01T01:29:00.967Z,4.70
2017-10-01T01:34:03.374Z,4.23
2017-10-01T01:39:05.649Z,4.87
2017-10-01T01:44:07.439Z,4.80
2017-10-01T01:49:09.395Z,5.00
2017-10-01T01:54:11.295Z,4.27
2017-10-01T01:59:13.145Z,4.53
2017-10-01T02:04:15.556Z,5.30
2017-10-01T02:09:17.511Z,4.70
2017-10-01T02:14:19.416Z,4.70
2017-10-01T02:19:21.295Z,4.70
2017-10-01T02:24:23.045Z,4.50
2017-10-01T02:29:25.050Z,4.50
2017-10-01T02:34:27.907Z,4.30
2017-10-01T02:39:44.627Z,4.27
2017-10-01T02:45:04.680Z,4.70
2017-10-01T02:50:23.930Z,4.50
2017-10-01T02:55:43.635Z,4.73
2017-10-01T03:00:48.711Z,5.40
2017-10-01T03:06:05.453Z,4.90
2017-10-01T03:11:25.104Z,5.33
2017-10-01T03:16:45.464Z,5.30
2017-10-01T03:21:51.491Z,4.07
2017-10-01T03:26:53.263Z,4.37
2017-10-01T03:31:55.053Z,5.07
2017-10-01T03:36:57.022Z,4.77
2017-10-01T03:41:58.924Z,4.57
2017-10-01T03:47:00.806Z,5.10
2017-10-01T03:52:02.653Z,5.13
2017-10-01T03:57:04.558Z,4.77
2017-10-01T04:02:07.051Z,4.87
2017-10-01T04:07:08.907Z,4.30
2017-10-01T04:12:11.413Z,5.83
2017-10-01T04:17:13.164Z,5.33
2017-10-01T04:22:14.968Z,4.77
2017-10-01T04:27:16.847Z,4.70
2017-10-01T04:32:18.708Z,4.90
2017-10-01T04:37:20.600Z,4.57
2017-10-01T04:42:22.447Z,4.63
2017-10-01T04:47:24.639Z,4.53
2017-10-01T04:52:26.951Z,4.60
2017-10-01T04:57:29.859Z,4.43
2017-10-01T05:02:31.705Z,4.60
2017-10-01T05:07:34.713Z,5.03
2017-10-01T05:12:36.412Z,6.13
2017-10-01T05:17:38.152Z,5.23
2017-10-01T05:22:39.840Z,6.30
2017-10-01T05:27:42.056Z,5.20
2017-10-01T05:32:43.915Z,5.17
2017-10-01T05:37:45.766Z,5.27
2017-10-01T05:42:47.968Z,5.50
2017-10-01T05:47:49.855Z,5.20
2017-10-01T05:52:51.709Z,4.63
2017-10-01T05:57:53.609Z,5.07
2017-10-01T06:02:55.489Z,4.97
2017-10-01T06:07:57.810Z,6.23
2017-10-01T06:12:59.563Z,6.63
2017-10-01T06:18:01.906Z,6.30
2017-10-01T06:23:03.611Z,7.33
2017-10-01T06:28:05.386Z,5.60
2017-10-01T06:33:07.742Z,6.90
2017-10-01T06:38:09.655Z,6.70
2017-10-01T06:43:11.530Z,7.20
2017-10-01T06:48:13.407Z,7.37
2017-10-01T06:53:15.257Z,7.73
2017-10-01T06:58:17.163Z,7.80
2017-10-01T07:03:22.300Z,7.40
2017-10-01T07:08:24.500Z,7.50
2017-10-01T07:13:26.292Z,7.17
2017-10-01T07:18:28.797Z,8.40
2017-10-01T07:23:31.384Z,7.53
2017-10-01T07:28:33.446Z,7.20
2017-10-01T07:33:35.239Z,7.23
2017-10-01T07:38:37.741Z,7.50
2017-10-01T07:43:40.248Z,7.80
2017-10-01T07:48:42.184Z,7.97
2017-10-01T07:53:44.675Z,10.03
2017-10-01T07:58:46.655Z,10.80
2017-10-01T08:03:48.505Z,10.83
2017-10-01T08:08:50.379Z,10.37
2017-10-01T08:13:52.493Z,11.97
2017-10-01T08:18:56.109Z,11.60
2017-10-01T08:23:57.987Z,10.73
2017-10-01T08:29:00.071Z,10.37
2017-10-01T08:34:01.869Z,10.20
2017-10-01T08:39:04.437Z,11.57
2017-10-01T08:44:06.315Z,10.97
2017-10-01T08:49:08.192Z,11.60
2017-10-01T08:54:10.070Z,10.10
2017-10-01T08:59:11.921Z,8.70
2017-10-01T09:04:13.788Z,8.63
2017-10-01T09:09:15.703Z,7.20
2017-10-01T09:14:17.765Z,7.33
2017-10-01T09:19:19.847Z,7.70
2017-10-01T09:24:22.200Z,8.50
2017-10-01T09:29:24.010Z,8.83
2017-10-01T09:34:25.890Z,8.90
2017-10-01T09:39:27.787Z,8.53
2017-10-01T09:44:29.663Z,7.90
2017-10-01T09:49:31.749Z,8.20
2017-10-01T09:54:33.576Z,8.53
2017-10-01T09:59:35.429Z,9.90
2017-10-01T10:04:37.991Z,10.63
2017-10-01T10:09:39.785Z,11.60
2017-10-01T10:14:43.082Z,11.00
2017-10-01T10:19:44.992Z,11.60
2017-10-01T10:24:46.934Z,10.93
2017-10-01T10:29:48.815Z,11.73
2017-10-01T10:34:50.689Z,12.27
2017-10-01T10:39:52.565Z,11.27
2017-10-01T10:44:54.417Z,10.73
2017-10-01T10:49:56.800Z,9.57
2017-10-01T10:54:58.511Z,10.90
2017-10-01T11:00:00.310Z,9.50
2017-10-01T11:05:02.056Z,10.17
2017-10-01T11:10:03.818Z,10.43
2017-10-01T11:15:05.575Z,9.60
2017-10-01T11:20:07.892Z,9.67
2017-10-01T11:25:10.181Z,9.50
2017-10-01T11:30:12.057Z,7.03
2017-10-01T11:35:13.911Z,7.87
2017-10-01T11:40:15.813Z,8.07
2017-10-01T11:45:17.674Z,9.00
2017-10-01T11:50:19.566Z,9.60
2017-10-01T11:55:21.375Z,8.63
2017-10-01T12:00:23.193Z,9.20
2017-10-01T12:05:24.876Z,9.30
2017-10-01T12:10:26.770Z,7.70
2017-10-01T12:15:29.036Z,6.93
2017-10-01T12:20:31.343Z,6.00
2017-10-01T12:25:33.118Z,6.40
2017-10-01T12:30:34.969Z,6.90
2017-10-01T12:35:37.606Z,6.87
2017-10-01T12:40:41.208Z,4.97
2017-10-01T12:45:43.856Z,5.03
2017-10-01T12:50:45.973Z,4.30
2017-10-01T12:55:47.741Z,3.70
2017-10-01T13:00:56.220Z,4.00
2017-10-01T13:05:58.760Z,4.07
2017-10-01T13:11:01.079Z,3.57
2017-10-01T13:16:02.925Z,3.27
2017-10-01T13:21:05.567Z,3.40
2017-10-01T13:26:08.112Z,2.60
2017-10-01T13:31:10.018Z,3.40
2017-10-01T13:36:11.999Z,3.40
2017-10-01T13:41:14.082Z,4.10
2017-10-01T13:46:16.620Z,4.47
2017-10-01T13:51:19.005Z,5.00
2017-10-01T13:56:21.585Z,5.00
2017-10-01T14:01:23.535Z,4.93
2017-10-01T14:06:26.129Z,4.43
2017-10-01T14:11:28.011Z,4.47
2017-10-01T14:16:29.744Z,5.20
2017-10-01T14:21:31.740Z,5.50
2017-10-01T14:26:34.107Z,4.50
2017-10-01T14:31:35.905Z,4.60
2017-10-01T14:36:37.806Z,4.73
2017-10-01T14:41:40.296Z,3.93
2017-10-01T14:46:42.789Z,4.10
2017-10-01T14:51:44.562Z,3.87
2017-10-01T14:56:46.440Z,3.20
2017-10-01T15:01:48.164Z,3.20
2017-10-01T15:06:49.991Z,3.10
2017-10-01T15:11:51.703Z,2.77
2017-10-01T15:16:54.056Z,2.90
2017-10-01T15:21:55.771Z,2.50
2017-10-01T15:26:57.605Z,2.23
2017-10-01T15:31:59.481Z,2.23
2017-10-01T15:37:01.255Z,3.43
2017-10-01T15:42:03.132Z,2.33
2017-10-01T15:47:05.011Z,2.57
2017-10-01T15:52:06.887Z,2.10
2017-10-01T15:57:08.766Z,2.40
2017-10-01T16:02:10.540Z,2.23
2017-10-01T16:07:12.247Z,2.63
2017-10-01T16:12:14.783Z,2.53
2017-10-01T16:17:16.656Z,3.00
2017-10-01T16:22:19.177Z,2.80
2017-10-01T16:27:21.478Z,2.80
2017-10-01T16:32:23.843Z,3.20
2017-10-01T16:37:25.559Z,3.17
2017-10-01T16:42:27.402Z,3.70
2017-10-01T16:47:29.281Z,3.80
2017-10-01T16:52:31.251Z,3.70
2017-10-01T16:57:32.973Z,3.57
2017-10-01T17:02:34.812Z,3.43
2017-10-01T17:07:36.728Z,3.27
2017-10-01T17:12:38.666Z,3.60
2017-10-01T17:17:40.516Z,3.63
2017-10-01T17:22:42.523Z,4.30
2017-10-01T17:27:44.401Z,4.37
2017-10-01T17:32:46.842Z,3.80
2017-10-01T17:37:48.757Z,3.97
2017-10-01T17:42:50.631Z,3.70
2017-10-01T17:47:52.528Z,4.03
2017-10-01T17:52:54.376Z,4.30
2017-10-01T17:57:56.178Z,4.43
2017-10-01T18:02:59.339Z,4.10
2017-10-01T18:08:01.141Z,4.90
2017-10-01T18:13:03.012Z,4.90
2017-10-01T18:18:04.918Z,4.67
2017-10-01T18:23:12.881Z,5.87
2017-10-01T18:28:23.615Z,4.87
2017-10-01T18:33:35.497Z,6.30
2017-10-01T18:38:53.795Z,6.80
2017-10-01T18:44:01.796Z,8.93
2017-10-01T18:49:03.594Z,5.23
2017-10-01T18:54:05.469Z,11.50
2017-10-01T18:59:07.323Z,5.70
2017-10-01T19:04:09.198Z,4.83
2017-10-01T19:09:11.311Z,4.10
2017-10-01T19:14:13.860Z,3.93
2017-10-01T19:19:15.956Z,3.90
2017-10-01T19:24:17.758Z,4.30
2017-10-01T19:29:20.173Z,5.37
2017-10-01T19:34:22.743Z,4.30
2017-10-01T19:39:24.722Z,6.23
2017-10-01T19:44:26.579Z,5.70
2017-10-01T19:49:28.478Z,5.20
2017-10-01T19:58:45.230Z,5.57
2017-10-01T20:03:47.106Z,4.83
2017-10-01T20:08:48.987Z,5.63
2017-10-01T20:13:50.984Z,14.13
2017-10-01T20:18:53.140Z,9.77
2017-10-01T20:23:56.387Z,8.13
2017-10-01T20:28:58.209Z,7.60
2017-10-01T20:34:00.645Z,7.07
2017-10-01T20:39:03.425Z,8.27
2017-10-01T20:44:05.302Z,6.20
2017-10-01T20:49:07.073Z,6.10
2017-10-01T20:54:09.057Z,5.60
2017-10-01T20:59:10.809Z,5.07
2017-10-01T21:04:12.606Z,5.13
2017-10-01T21:09:14.484Z,4.50
2017-10-01T21:14:16.361Z,5.00
2017-10-01T21:19:18.238Z,5.27
2017-10-01T21:24:20.116Z,5.70
2017-10-01T21:29:21.969Z,6.70
2017-10-01T21:34:23.871Z,7.00
2017-10-01T21:39:25.750Z,7.00
2017-10-01T21:44:27.607Z,5.33
2017-10-01T21:49:29.504Z,4.80
2017-10-01T21:54:31.388Z,5.07
2017-10-01T21:59:33.771Z,4.60
2017-10-01T22:04:35.853Z,4.80
2017-10-01T22:09:37.730Z,4.40
2017-10-01T22:14:40.410Z,4.53
2017-10-01T22:19:42.151Z,4.60
2017-10-01T22:24:44.079Z,6.00
2017-10-01T22:29:45.854Z,4.70
2017-10-01T22:34:48.204Z,4.83
2017-10-01T22:39:50.019Z,4.60
2017-10-01T22:44:51.794Z,4.60
2017-10-01T22:49:53.554Z,4.60
2017-10-01T22:54:55.316Z,4.77
2017-10-01T22:59:57.541Z,4.40
2017-10-01T23:04:59.306Z,4.40
2017-10-01T23:10:01.182Z,4.83
2017-10-01T23:15:02.955Z,4.60
2017-10-01T23:20:04.836Z,5.40
2017-10-01T23:25:06.689Z,4.23
2017-10-01T23:30:09.406Z,4.30
2017-10-01T23:35:11.284Z,4.03
2017-10-01T23:40:13.136Z,4.57
2017-10-01T23:45:15.039Z,4.80
2017-10-01T23:50:16.776Z,4.50
2017-10-01T23:55:18.594Z,5.13
